sensor_id;sensor_type;location;lat;lon;timestamp;pressure;altitude;pressure_sealevel;temperature;humidity
32109;BME280;18624;50.042;8.436;2024-03-06T00:02:18;100591.09;;;7.08;100.00
32109;BME280;18624;50.042;8.436;2024-03-06T00:04:44;100585.28;;;7.03;100.00
32109;BME280;18624;50.042;8.436;2024-03-06T00:07:11;100592.66;;;7.02;100.00
32109;BME280;18624;50.042;8.436;2024-03-06T00:09:37;100600.88;;;6.99;100.00
32109;BME280;18624;50.042;8.436;2024-03-06T00:12:04;100597.41;;;6.95;100.00
32109;BME280;18624;50.042;8.436;2024-03-06T00:14:32;100603.25;;;6.90;100.00
32109;BME280;18624;50.042;8.436;2024-03-06T00:16:58;100611.03;;;6.88;100.00
32109;BME280;18624;50.042;8.436;2024-03-06T00:19:25;100607.19;;;6.81;100.00
32109;BME280;18624;50.042;8.436;2024-03-06T00:21:51;100608.75;;;6.82;100.00
32109;BME280;18624;50.042;8.436;2024-03-06T00:24:18;100615.38;;;6.81;100.00
32109;BME280;18624;50.042;8.436;2024-03-06T00:26:45;100622.38;;;6.79;100.00
32109;BME280;18624;50.042;8.436;2024-03-06T00:29:11;100623.56;;;6.78;100.00
32109;BME280;18624;50.042;8.436;2024-03-06T00:31:45;100624.75;;;6.73;100.00
32109;BME280;18624;50.042;8.436;2024-03-06T00:34:12;100627.09;;;6.71;100.00
32109;BME280;18624;50.042;8.436;2024-03-06T00:36:40;100625.94;;;6.69;100.00
32109;BME280;18624;50.042;8.436;2024-03-06T00:39:07;100628.66;;;6.69;100.00
32109;BME280;18624;50.042;8.436;2024-03-06T00:41:35;100623.97;;;6.66;100.00
32109;BME280;18624;50.042;8.436;2024-03-06T00:44:01;100616.63;;;6.63;100.00
32109;BME280;18624;50.042;8.436;2024-03-06T00:46:28;100619.34;;;6.59;100.00
32109;BME280;18624;50.042;8.436;2024-03-06T00:48:54;100616.63;;;6.55;100.00
32109;BME280;18624;50.042;8.436;2024-03-06T00:51:21;100555.31;;;6.15;100.00
32109;BME280;18624;50.042;8.436;2024-03-06T00:54:02;100572.41;;;6.23;100.00
32109;BME280;18624;50.042;8.436;2024-03-06T00:56:29;100623.25;;;6.58;100.00
32109;BME280;18624;50.042;8.436;2024-03-06T00:58:55;100619.38;;;6.55;100.00
32109;BME280;18624;50.042;8.436;2024-03-06T01:01:22;100617.41;;;6.52;100.00
32109;BME280;18624;50.042;8.436;2024-03-06T01:03:48;100631.44;;;6.58;100.00
32109;BME280;18624;50.042;8.436;2024-03-06T01:06:15;100625.97;;;6.58;100.00
32109;BME280;18624;50.042;8.436;2024-03-06T01:08:41;100626.34;;;6.56;100.00
32109;BME280;18624;50.042;8.436;2024-03-06T01:11:08;100611.25;;;6.45;100.00
32109;BME280;18624;50.042;8.436;2024-03-06T01:13:34;100626.41;;;6.49;100.00
32109;BME280;18624;50.042;8.436;2024-03-06T01:16:02;100632.25;;;6.44;100.00
32109;BME280;18624;50.042;8.436;2024-03-06T01:18:28;100632.28;;;6.30;100.00
32109;BME280;18624;50.042;8.436;2024-03-06T01:20:55;100642.00;;;6.24;100.00
32109;BME280;18624;50.042;8.436;2024-03-06T01:23:22;100640.84;;;6.21;100.00
32109;BME280;18624;50.042;8.436;2024-03-06T01:25:48;100641.66;;;6.18;100.00
32109;BME280;18624;50.042;8.436;2024-03-06T01:28:15;100646.31;;;6.18;100.00
32109;BME280;18624;50.042;8.436;2024-03-06T01:30:42;100649.81;;;6.15;100.00
32109;BME280;18624;50.042;8.436;2024-03-06T01:33:08;100647.84;;;6.15;100.00
32109;BME280;18624;50.042;8.436;2024-03-06T01:35:36;100641.66;;;6.11;100.00
32109;BME280;18624;50.042;8.436;2024-03-06T01:38:02;100660.69;;;6.15;100.00
32109;BME280;18624;50.042;8.436;2024-03-06T01:40:29;100642.81;;;6.14;100.00
32109;BME280;18624;50.042;8.436;2024-03-06T01:42:55;100647.50;;;6.09;100.00
32109;BME280;18624;50.042;8.436;2024-03-06T01:45:22;100641.28;;;6.09;100.00
32109;BME280;18624;50.042;8.436;2024-03-06T01:47:49;100640.50;;;6.05;100.00
32109;BME280;18624;50.042;8.436;2024-03-06T01:50:16;100646.34;;;6.00;100.00
32109;BME280;18624;50.042;8.436;2024-03-06T01:52:44;100643.59;;;5.93;100.00
32109;BME280;18624;50.042;8.436;2024-03-06T01:55:11;100652.50;;;5.90;100.00
32109;BME280;18624;50.042;8.436;2024-03-06T01:57:39;100655.25;;;5.86;100.00
32109;BME280;18624;50.042;8.436;2024-03-06T02:00:08;100647.88;;;5.87;100.00
32109;BME280;18624;50.042;8.436;2024-03-06T02:02:43;100661.84;;;5.89;100.00
32109;BME280;18624;50.042;8.436;2024-03-06T02:05:09;100657.19;;;5.89;100.00
32109;BME280;18624;50.042;8.436;2024-03-06T02:07:38;100659.91;;;5.89;100.00
32109;BME280;18624;50.042;8.436;2024-03-06T02:10:07;100656.03;;;5.87;100.00
32109;BME280;18624;50.042;8.436;2024-03-06T02:12:34;100659.53;;;5.83;100.00
32109;BME280;18624;50.042;8.436;2024-03-06T02:15:01;100656.41;;;5.81;100.00
32109;BME280;18624;50.042;8.436;2024-03-06T02:17:29;100659.16;;;5.81;100.00
32109;BME280;18624;50.042;8.436;2024-03-06T02:19:56;100668.84;;;5.82;100.00
32109;BME280;18624;50.042;8.436;2024-03-06T02:22:24;100666.53;;;5.81;100.00
32109;BME280;18624;50.042;8.436;2024-03-06T02:24:50;100669.63;;;5.79;100.00
32109;BME280;18624;50.042;8.436;2024-03-06T02:27:17;100666.53;;;5.77;100.00
32109;BME280;18624;50.042;8.436;2024-03-06T02:29:44;100624.16;;;5.51;100.00
32109;BME280;18624;50.042;8.436;2024-03-06T02:32:12;100667.69;;;5.80;100.00
32109;BME280;18624;50.042;8.436;2024-03-06T02:34:40;100669.25;;;5.81;100.00
32109;BME280;18624;50.042;8.436;2024-03-06T02:37:07;100673.50;;;5.78;100.00
32109;BME280;18624;50.042;8.436;2024-03-06T02:39:34;100669.25;;;5.77;100.00
32109;BME280;18624;50.042;8.436;2024-03-06T02:42:00;100659.50;;;5.66;100.00
32109;BME280;18624;50.042;8.436;2024-03-06T02:44:27;100673.91;;;5.77;100.00
32109;BME280;18624;50.042;8.436;2024-03-06T02:46:54;100672.34;;;5.76;100.00
32109;BME280;18624;50.042;8.436;2024-03-06T02:49:20;100542.53;;;4.91;100.00
32109;BME280;18624;50.042;8.436;2024-03-06T02:51:47;100633.09;;;5.55;100.00
32109;BME280;18624;50.042;8.436;2024-03-06T02:54:13;100656.78;;;5.66;100.00
32109;BME280;18624;50.042;8.436;2024-03-06T02:56:40;100656.41;;;5.60;100.00
32109;BME280;18624;50.042;8.436;2024-03-06T02:59:07;100657.97;;;5.54;100.00
32109;BME280;18624;50.042;8.436;2024-03-06T03:01:33;100660.69;;;5.54;100.00
32109;BME280;18624;50.042;8.436;2024-03-06T03:04:00;100652.13;;;5.52;100.00
32109;BME280;18624;50.042;8.436;2024-03-06T03:06:27;100665.34;;;5.50;100.00
32109;BME280;18624;50.042;8.436;2024-03-06T03:08:53;100656.00;;;5.47;100.00
32109;BME280;18624;50.042;8.436;2024-03-06T03:11:19;100666.09;;;5.47;100.00
32109;BME280;18624;50.042;8.436;2024-03-06T03:13:46;100662.59;;;5.43;100.00
32109;BME280;18624;50.042;8.436;2024-03-06T03:16:17;100651.69;;;5.36;100.00
32109;BME280;18624;50.042;8.436;2024-03-06T03:18:45;100662.59;;;5.43;100.00
32109;BME280;18624;50.042;8.436;2024-03-06T03:21:12;100666.50;;;5.45;100.00
32109;BME280;18624;50.042;8.436;2024-03-06T03:23:39;100668.81;;;5.47;100.00
32109;BME280;18624;50.042;8.436;2024-03-06T03:26:07;100669.59;;;5.47;100.00
32109;BME280;18624;50.042;8.436;2024-03-06T03:28:34;100671.16;;;5.48;100.00
32109;BME280;18624;50.042;8.436;2024-03-06T03:31:00;100668.06;;;5.46;100.00
32109;BME280;18624;50.042;8.436;2024-03-06T03:33:27;100670.78;;;5.50;100.00
32109;BME280;18624;50.042;8.436;2024-03-06T03:35:53;100667.66;;;5.48;100.00
32109;BME280;18624;50.042;8.436;2024-03-06T03:38:19;100668.84;;;5.50;100.00
32109;BME280;18624;50.042;8.436;2024-03-06T03:40:46;100654.84;;;5.41;100.00
32109;BME280;18624;50.042;8.436;2024-03-06T03:43:13;100669.22;;;5.52;100.00
32109;BME280;18624;50.042;8.436;2024-03-06T03:45:39;100682.03;;;5.55;100.00
32109;BME280;18624;50.042;8.436;2024-03-06T03:48:06;100676.22;;;5.57;100.00
32109;BME280;18624;50.042;8.436;2024-03-06T03:50:32;100680.47;;;5.58;100.00
32109;BME280;18624;50.042;8.436;2024-03-06T03:52:59;100681.66;;;5.57;100.00
32109;BME280;18624;50.042;8.436;2024-03-06T03:55:27;100581.78;;;4.97;100.00
32109;BME280;18624;50.042;8.436;2024-03-06T03:57:54;100678.16;;;5.56;100.00
32109;BME280;18624;50.042;8.436;2024-03-06T04:00:20;100666.47;;;5.49;100.00
32109;BME280;18624;50.042;8.436;2024-03-06T04:02:48;100673.50;;;5.46;100.00
32109;BME280;18624;50.042;8.436;2024-03-06T04:05:15;100685.16;;;5.50;100.00
32109;BME280;18624;50.042;8.436;2024-03-06T04:07:42;100685.16;;;5.54;100.00
32109;BME280;18624;50.042;8.436;2024-03-06T04:10:09;100679.72;;;5.50;100.00
32109;BME280;18624;50.042;8.436;2024-03-06T04:12:37;100680.06;;;5.49;100.00
32109;BME280;18624;50.042;8.436;2024-03-06T04:15:05;100696.03;;;5.50;100.00
32109;BME280;18624;50.042;8.436;2024-03-06T04:17:33;100655.16;;;5.15;100.00
32109;BME280;18624;50.042;8.436;2024-03-06T04:20:00;100696.78;;;5.37;100.00
32109;BME280;18624;50.042;8.436;2024-03-06T04:22:27;100709.59;;;5.36;100.00
32109;BME280;18624;50.042;8.436;2024-03-06T04:24:53;100692.84;;;5.23;100.00
32109;BME280;18624;50.042;8.436;2024-03-06T04:27:21;100704.50;;;5.31;100.00
32109;BME280;18624;50.042;8.436;2024-03-06T04:29:47;100708.38;;;5.30;100.00
32109;BME280;18624;50.042;8.436;2024-03-06T04:32:14;100704.13;;;5.29;100.00
32109;BME280;18624;50.042;8.436;2024-03-06T04:34:40;100701.41;;;5.29;100.00
32109;BME280;18624;50.042;8.436;2024-03-06T04:37:07;100709.94;;;5.31;100.00
32109;BME280;18624;50.042;8.436;2024-03-06T04:39:33;100717.72;;;5.32;100.00
32109;BME280;18624;50.042;8.436;2024-03-06T04:42:00;100722.75;;;5.30;100.00
32109;BME280;18624;50.042;8.436;2024-03-06T04:44:27;100730.13;;;5.30;100.00
32109;BME280;18624;50.042;8.436;2024-03-06T04:46:54;100735.56;;;5.26;100.00
32109;BME280;18624;50.042;8.436;2024-03-06T04:49:20;100734.78;;;5.26;100.00
32109;BME280;18624;50.042;8.436;2024-03-06T04:51:47;100739.44;;;5.25;100.00
32109;BME280;18624;50.042;8.436;2024-03-06T04:54:13;100736.72;;;5.25;100.00
32109;BME280;18624;50.042;8.436;2024-03-06T04:56:40;100745.66;;;5.26;100.00
32109;BME280;18624;50.042;8.436;2024-03-06T04:59:06;100742.16;;;5.25;100.00
32109;BME280;18624;50.042;8.436;2024-03-06T05:01:32;100755.75;;;5.25;100.00
32109;BME280;18624;50.042;8.436;2024-03-06T05:03:59;100749.50;;;5.21;100.00
32109;BME280;18624;50.042;8.436;2024-03-06T05:06:43;100743.31;;;5.21;100.00
32109;BME280;18624;50.042;8.436;2024-03-06T05:09:27;100745.66;;;5.22;100.00
32109;BME280;18624;50.042;8.436;2024-03-06T05:12:10;100751.88;;;5.23;100.00
32109;BME280;18624;50.042;8.436;2024-03-06T05:14:55;100754.94;;;5.21;100.00
32109;BME280;18624;50.042;8.436;2024-03-06T05:17:39;100753.81;;;5.22;100.00
32109;BME280;18624;50.042;8.436;2024-03-06T05:20:22;100761.94;;;5.19;100.00
32109;BME280;18624;50.042;8.436;2024-03-06T05:23:06;100764.25;;;5.17;100.00
32109;BME280;18624;50.042;8.436;2024-03-06T05:25:50;100762.31;;;5.14;100.00
32109;BME280;18624;50.042;8.436;2024-03-06T05:28:34;100766.16;;;5.13;100.00
32109;BME280;18624;50.042;8.436;2024-03-06T05:31:19;100766.56;;;5.11;100.00
32109;BME280;18624;50.042;8.436;2024-03-06T05:34:07;100768.88;;;5.13;100.00
32109;BME280;18624;50.042;8.436;2024-03-06T05:36:51;100774.31;;;5.13;100.00
32109;BME280;18624;50.042;8.436;2024-03-06T05:39:36;100764.19;;;5.02;100.00
32109;BME280;18624;50.042;8.436;2024-03-06T05:42:21;100776.22;;;5.01;100.00
32109;BME280;18624;50.042;8.436;2024-03-06T05:45:05;100783.19;;;4.99;100.00
32109;BME280;18624;50.042;8.436;2024-03-06T05:47:54;100790.91;;;4.93;100.00
32109;BME280;18624;50.042;8.436;2024-03-06T05:50:38;100800.97;;;4.89;100.00
32109;BME280;18624;50.042;8.436;2024-03-06T05:53:22;100798.66;;;4.88;100.00
32109;BME280;18624;50.042;8.436;2024-03-06T05:56:07;100803.28;;;4.83;100.00
32109;BME280;18624;50.042;8.436;2024-03-06T05:58:50;100808.72;;;4.83;100.00
32109;BME280;18624;50.042;8.436;2024-03-06T06:01:17;100814.94;;;4.84;100.00
32109;BME280;18624;50.042;8.436;2024-03-06T06:03:48;100816.03;;;4.76;100.00
32109;BME280;18624;50.042;8.436;2024-03-06T06:06:17;100826.94;;;4.79;100.00
32109;BME280;18624;50.042;8.436;2024-03-06T06:08:45;100771.63;;;4.47;100.00
32109;BME280;18624;50.042;8.436;2024-03-06T06:11:12;100818.75;;;4.76;100.00
32109;BME280;18624;50.042;8.436;2024-03-06T06:13:39;100826.53;;;4.81;100.00
32109;BME280;18624;50.042;8.436;2024-03-06T06:16:08;100822.28;;;4.80;100.00
32109;BME280;18624;50.042;8.436;2024-03-06T06:18:34;100823.47;;;4.82;100.00
32109;BME280;18624;50.042;8.436;2024-03-06T06:21:01;100828.53;;;4.88;100.00
32109;BME280;18624;50.042;8.436;2024-03-06T06:23:28;100826.97;;;4.87;100.00
32109;BME280;18624;50.042;8.436;2024-03-06T06:25:54;100824.28;;;4.87;100.00
32109;BME280;18624;50.042;8.436;2024-03-06T06:28:21;100837.50;;;4.92;100.00
32109;BME280;18624;50.042;8.436;2024-03-06T06:30:47;100830.47;;;4.91;100.00
32109;BME280;18624;50.042;8.436;2024-03-06T06:33:14;100830.09;;;4.89;100.00
32109;BME280;18624;50.042;8.436;2024-03-06T06:35:40;100837.50;;;4.92;100.00
32109;BME280;18624;50.042;8.436;2024-03-06T06:38:07;100838.63;;;4.91;100.00
32109;BME280;18624;50.042;8.436;2024-03-06T06:40:33;100842.13;;;4.88;100.00
32109;BME280;18624;50.042;8.436;2024-03-06T06:43:00;100849.88;;;4.89;100.00
32109;BME280;18624;50.042;8.436;2024-03-06T06:45:26;100849.91;;;4.93;100.00
32109;BME280;18624;50.042;8.436;2024-03-06T06:47:53;100849.13;;;4.92;100.00
32109;BME280;18624;50.042;8.436;2024-03-06T06:50:20;100863.53;;;4.96;100.00
32109;BME280;18624;50.042;8.436;2024-03-06T06:52:52;100860.84;;;5.00;100.00
32109;BME280;18624;50.042;8.436;2024-03-06T06:55:19;100860.81;;;4.96;100.00
32109;BME280;18624;50.042;8.436;2024-03-06T06:57:50;100871.31;;;5.01;100.00
32109;BME280;18624;50.042;8.436;2024-03-06T07:00:17;100877.91;;;5.00;100.00
32109;BME280;18624;50.042;8.436;2024-03-06T07:02:45;100879.44;;;4.98;100.00
32109;BME280;18624;50.042;8.436;2024-03-06T07:05:12;100883.34;;;5.00;100.00
32109;BME280;18624;50.042;8.436;2024-03-06T07:07:39;100884.53;;;5.06;100.00
32109;BME280;18624;50.042;8.436;2024-03-06T07:10:06;100893.09;;;5.12;100.00
32109;BME280;18624;50.042;8.436;2024-03-06T07:12:32;100886.94;;;5.19;100.00
32109;BME280;18624;50.042;8.436;2024-03-06T07:14:59;100886.19;;;5.25;100.00
32109;BME280;18624;50.042;8.436;2024-03-06T07:17:25;100891.31;;;5.34;100.00
32109;BME280;18624;50.042;8.436;2024-03-06T07:19:52;100886.69;;;5.42;100.00
32109;BME280;18624;50.042;8.436;2024-03-06T07:22:19;100875.44;;;5.43;100.00
32109;BME280;18624;50.042;8.436;2024-03-06T07:24:45;100880.53;;;5.55;100.00
32109;BME280;18624;50.042;8.436;2024-03-06T07:27:12;100883.28;;;5.59;100.00
32109;BME280;18624;50.042;8.436;2024-03-06T07:29:38;100887.16;;;5.62;100.00
32109;BME280;18624;50.042;8.436;2024-03-06T07:32:05;100894.19;;;5.66;100.00
32109;BME280;18624;50.042;8.436;2024-03-06T07:34:32;100903.13;;;5.70;100.00
32109;BME280;18624;50.042;8.436;2024-03-06T07:36:59;100902.75;;;5.75;100.00
32109;BME280;18624;50.042;8.436;2024-03-06T07:39:31;100908.19;;;5.75;100.00
32109;BME280;18624;50.042;8.436;2024-03-06T07:41:58;100918.31;;;5.78;100.00
32109;BME280;18624;50.042;8.436;2024-03-06T07:44:24;100917.56;;;5.81;100.00
32109;BME280;18624;50.042;8.436;2024-03-06T07:46:51;100919.50;;;5.84;100.00
32109;BME280;18624;50.042;8.436;2024-03-06T07:49:20;100921.84;;;5.90;100.00
32109;BME280;18624;50.042;8.436;2024-03-06T07:51:48;100919.13;;;5.90;100.00
32109;BME280;18624;50.042;8.436;2024-03-06T07:54:14;100930.03;;;5.90;100.00
32109;BME280;18624;50.042;8.436;2024-03-06T07:56:41;100932.75;;;5.90;100.00
32109;BME280;18624;50.042;8.436;2024-03-06T07:59:08;100939.34;;;5.89;100.00
32109;BME280;18624;50.042;8.436;2024-03-06T08:01:35;100944.00;;;5.88;100.00
32109;BME280;18624;50.042;8.436;2024-03-06T08:04:01;100937.75;;;5.80;100.00
32109;BME280;18624;50.042;8.436;2024-03-06T08:06:28;100950.22;;;5.85;100.00
32109;BME280;18624;50.042;8.436;2024-03-06T08:08:55;100951.41;;;5.88;100.00
32109;BME280;18624;50.042;8.436;2024-03-06T08:11:25;100951.00;;;5.89;100.00
32109;BME280;18624;50.042;8.436;2024-03-06T08:14:00;100949.88;;;5.94;100.00
32109;BME280;18624;50.042;8.436;2024-03-06T08:16:31;100943.31;;;5.98;100.00
32109;BME280;18624;50.042;8.436;2024-03-06T08:19:02;100957.31;;;6.07;100.00
32109;BME280;18624;50.042;8.436;2024-03-06T08:21:28;100964.34;;;6.08;100.00
32109;BME280;18624;50.042;8.436;2024-03-06T08:23:55;100961.25;;;6.10;100.00
32109;BME280;18624;50.042;8.436;2024-03-06T08:26:22;100974.09;;;6.13;100.00
32109;BME280;18624;50.042;8.436;2024-03-06T08:28:49;100966.28;;;6.12;100.00
32109;BME280;18624;50.042;8.436;2024-03-06T08:31:15;100973.31;;;6.20;100.00
32109;BME280;18624;50.042;8.436;2024-03-06T08:33:42;100973.72;;;6.25;100.00
32109;BME280;18624;50.042;8.436;2024-03-06T08:36:09;100973.34;;;6.27;100.00
32109;BME280;18624;50.042;8.436;2024-03-06T08:38:36;100980.75;;;6.30;100.00
32109;BME280;18624;50.042;8.436;2024-03-06T08:41:02;100974.94;;;6.35;100.00
32109;BME280;18624;50.042;8.436;2024-03-06T08:43:29;100978.84;;;6.41;100.00
32109;BME280;18624;50.042;8.436;2024-03-06T08:45:55;100975.34;;;6.48;100.00
32109;BME280;18624;50.042;8.436;2024-03-06T08:48:22;100983.16;;;6.60;100.00
32109;BME280;18624;50.042;8.436;2024-03-06T08:50:48;100983.16;;;6.71;100.00
32109;BME280;18624;50.042;8.436;2024-03-06T08:53:15;100990.19;;;6.75;100.00
32109;BME280;18624;50.042;8.436;2024-03-06T08:55:42;100983.97;;;6.78;100.00
32109;BME280;18624;50.042;8.436;2024-03-06T08:58:09;100990.97;;;6.83;100.00
32109;BME280;18624;50.042;8.436;2024-03-06T09:00:35;100988.25;;;6.83;100.00
32109;BME280;18624;50.042;8.436;2024-03-06T09:03:01;100995.25;;;6.88;100.00
32109;BME280;18624;50.042;8.436;2024-03-06T09:05:28;100989.84;;;6.95;100.00
32109;BME280;18624;50.042;8.436;2024-03-06T09:07:55;100994.13;;;6.99;100.00
32109;BME280;18624;50.042;8.436;2024-03-06T09:10:27;101001.50;;;7.02;100.00
32109;BME280;18624;50.042;8.436;2024-03-06T09:12:54;100999.16;;;7.01;100.00
32109;BME280;18624;50.042;8.436;2024-03-06T09:15:20;101000.34;;;7.03;100.00
32109;BME280;18624;50.042;8.436;2024-03-06T09:17:47;100992.19;;;7.07;100.00
32109;BME280;18624;50.042;8.436;2024-03-06T09:20:14;100990.59;;;7.09;100.00
32109;BME280;18624;50.042;8.436;2024-03-06T09:22:42;100986.34;;;7.12;100.00
32109;BME280;18624;50.042;8.436;2024-03-06T09:25:10;100998.38;;;7.15;100.00
32109;BME280;18624;50.042;8.436;2024-03-06T09:27:37;100994.50;;;7.23;100.00
32109;BME280;18624;50.042;8.436;2024-03-06T09:30:04;100987.09;;;7.27;100.00
32109;BME280;18624;50.042;8.436;2024-03-06T09:32:30;100990.19;;;7.29;100.00
32109;BME280;18624;50.042;8.436;2024-03-06T09:34:58;100999.16;;;7.40;100.00
32109;BME280;18624;50.042;8.436;2024-03-06T09:37:25;100943.88;;;7.07;100.00
32109;BME280;18624;50.042;8.436;2024-03-06T09:39:52;100991.75;;;7.44;100.00
32109;BME280;18624;50.042;8.436;2024-03-06T09:42:18;100983.94;;;7.50;100.00
32109;BME280;18624;50.042;8.436;2024-03-06T09:44:45;100987.81;;;7.56;100.00
32109;BME280;18624;50.042;8.436;2024-03-06T09:47:14;100998.75;;;7.63;100.00
32109;BME280;18624;50.042;8.436;2024-03-06T09:49:41;100995.22;;;7.66;100.00
32109;BME280;18624;50.042;8.436;2024-03-06T09:52:09;100981.56;;;7.70;100.00
32109;BME280;18624;50.042;8.436;2024-03-06T09:54:37;100990.91;;;7.79;100.00
32109;BME280;18624;50.042;8.436;2024-03-06T09:57:05;100990.09;;;7.86;100.00
32109;BME280;18624;50.042;8.436;2024-03-06T09:59:32;100987.72;;;7.95;100.00
32109;BME280;18624;50.042;8.436;2024-03-06T10:02:00;100981.47;;;8.02;100.00
32109;BME280;18624;50.042;8.436;2024-03-06T10:04:32;100987.31;;;8.07;100.00
32109;BME280;18624;50.042;8.436;2024-03-06T10:07:00;100989.25;;;8.10;100.00
32109;BME280;18624;50.042;8.436;2024-03-06T10:09:28;100998.19;;;8.15;100.00
32109;BME280;18624;50.042;8.436;2024-03-06T10:11:55;100948.38;;;7.93;100.00
32109;BME280;18624;50.042;8.436;2024-03-06T10:14:25;100989.59;;;8.20;100.00
32109;BME280;18624;50.042;8.436;2024-03-06T10:16:55;100994.59;;;8.28;100.00
32109;BME280;18624;50.042;8.436;2024-03-06T10:19:24;101001.63;;;8.36;100.00
32109;BME280;18624;50.042;8.436;2024-03-06T10:21:51;100993.41;;;8.40;100.00
32109;BME280;18624;50.042;8.436;2024-03-06T10:24:19;101000.41;;;8.45;100.00
32109;BME280;18624;50.042;8.436;2024-03-06T10:26:47;100984.41;;;8.47;100.00
32109;BME280;18624;50.042;8.436;2024-03-06T10:29:15;101005.09;;;8.51;100.00
32109;BME280;18624;50.042;8.436;2024-03-06T10:31:56;100995.28;;;8.54;100.00
32109;BME280;18624;50.042;8.436;2024-03-06T10:34:29;100996.47;;;8.56;100.00
32109;BME280;18624;50.042;8.436;2024-03-06T10:36:57;100996.41;;;8.60;100.00
32109;BME280;18624;50.042;8.436;2024-03-06T10:39:24;100994.50;;;8.60;100.00
32109;BME280;18624;50.042;8.436;2024-03-06T10:41:53;100996.41;;;8.63;100.00
32109;BME280;18624;50.042;8.436;2024-03-06T10:44:25;100969.19;;;8.46;100.00
32109;BME280;18624;50.042;8.436;2024-03-06T10:47:00;100989.38;;;8.66;100.00
32109;BME280;18624;50.042;8.436;2024-03-06T10:49:27;100987.78;;;8.69;100.00
32109;BME280;18624;50.042;8.436;2024-03-06T10:52:04;100997.91;;;8.75;100.00
32109;BME280;18624;50.042;8.436;2024-03-06T10:54:35;101001.41;;;8.76;100.00
32109;BME280;18624;50.042;8.436;2024-03-06T10:57:05;100997.47;;;8.80;100.00
32109;BME280;18624;50.042;8.436;2024-03-06T10:59:34;100993.19;;;8.79;100.00
32109;BME280;18624;50.042;8.436;2024-03-06T11:02:01;100999.03;;;8.81;100.00
32109;BME280;18624;50.042;8.436;2024-03-06T11:04:30;100998.63;;;8.83;100.00
32109;BME280;18624;50.042;8.436;2024-03-06T11:07:01;100991.59;;;8.82;100.00
32109;BME280;18624;50.042;8.436;2024-03-06T11:09:35;101002.91;;;8.87;100.00
32109;BME280;18624;50.042;8.436;2024-03-06T11:12:02;100997.03;;;8.85;100.00
32109;BME280;18624;50.042;8.436;2024-03-06T11:14:31;100998.56;;;8.94;100.00
32109;BME280;18624;50.042;8.436;2024-03-06T11:17:05;100938.31;;;8.56;100.00
32109;BME280;18624;50.042;8.436;2024-03-06T11:28:16;101010.53;;;9.14;100.00
32109;BME280;18624;50.042;8.436;2024-03-06T11:30:46;101013.25;;;9.14;100.00
32109;BME280;18624;50.042;8.436;2024-03-06T11:33:16;101010.91;;;9.12;100.00
32109;BME280;18624;50.042;8.436;2024-03-06T11:35:43;100926.97;;;8.57;100.00
32109;BME280;18624;50.042;8.436;2024-03-06T11:38:30;101008.50;;;9.18;100.00
32109;BME280;18624;50.042;8.436;2024-03-06T11:40:58;101005.38;;;9.20;100.00
32109;BME280;18624;50.042;8.436;2024-03-06T11:43:25;101014.25;;;9.31;100.00
32109;BME280;18624;50.042;8.436;2024-03-06T11:45:53;101011.91;;;9.33;100.00
32109;BME280;18624;50.042;8.436;2024-03-06T11:48:19;101014.25;;;9.34;100.00
32109;BME280;18624;50.042;8.436;2024-03-06T11:50:48;101013.81;;;9.36;100.00
32109;BME280;18624;50.042;8.436;2024-03-06T11:53:14;101010.31;;;9.35;100.00
32109;BME280;18624;50.042;8.436;2024-03-06T11:55:42;101010.72;;;9.34;100.00
32109;BME280;18624;50.042;8.436;2024-03-06T11:58:09;101015.78;;;9.35;100.00
32109;BME280;18624;50.042;8.436;2024-03-06T12:00:38;101008.78;;;9.34;100.00
32109;BME280;18624;50.042;8.436;2024-03-06T12:03:04;101008.72;;;9.42;100.00
32109;BME280;18624;50.042;8.436;2024-03-06T12:05:31;101009.06;;;9.44;100.00
32109;BME280;18624;50.042;8.436;2024-03-06T12:07:58;101009.81;;;9.48;100.00
32109;BME280;18624;50.042;8.436;2024-03-06T12:10:25;101002.78;;;9.50;100.00
32109;BME280;18624;50.042;8.436;2024-03-06T12:12:51;101007.03;;;9.55;100.00
32109;BME280;18624;50.042;8.436;2024-03-06T12:15:18;101008.97;;;9.54;100.00
32109;BME280;18624;50.042;8.436;2024-03-06T12:17:47;101009.34;;;9.56;100.00
32109;BME280;18624;50.042;8.436;2024-03-06T12:20:17;101005.84;;;9.56;100.00
32109;BME280;18624;50.042;8.436;2024-03-06T12:22:45;101008.56;;;9.59;100.00
32109;BME280;18624;50.042;8.436;2024-03-06T12:25:22;101007.34;;;9.60;100.00
32109;BME280;18624;50.042;8.436;2024-03-06T12:27:49;101004.63;;;9.60;100.00
32109;BME280;18624;50.042;8.436;2024-03-06T12:30:20;100994.88;;;9.59;100.00
32109;BME280;18624;50.042;8.436;2024-03-06T12:33:00;101008.09;;;9.64;100.00
32109;BME280;18624;50.042;8.436;2024-03-06T12:35:30;101008.44;;;9.70;100.00
32109;BME280;18624;50.042;8.436;2024-03-06T12:37:58;100975.03;;;9.48;100.00
32109;BME280;18624;50.042;8.436;2024-03-06T12:40:24;101009.22;;;9.67;100.00
32109;BME280;18624;50.042;8.436;2024-03-06T12:42:51;101011.63;;;9.65;100.00
32109;BME280;18624;50.042;8.436;2024-03-06T12:45:19;101015.44;;;9.71;100.00
32109;BME280;18624;50.042;8.436;2024-03-06T12:47:47;101007.28;;;9.68;100.00
32109;BME280;18624;50.042;8.436;2024-03-06T12:50:17;101000.63;;;9.69;100.00
32109;BME280;18624;50.042;8.436;2024-03-06T12:52:43;101009.88;;;9.82;100.00
32109;BME280;18624;50.042;8.436;2024-03-06T12:55:12;100960.91;;;9.53;100.00
32109;BME280;18624;50.042;8.436;2024-03-06T12:57:39;100946.09;;;9.51;100.00
32109;BME280;18624;50.042;8.436;2024-03-06T13:00:06;100991.81;;;9.88;100.00
32109;BME280;18624;50.042;8.436;2024-03-06T13:02:43;100995.28;;;9.92;100.00
32109;BME280;18624;50.042;8.436;2024-03-06T13:05:11;100995.28;;;9.92;100.00
32109;BME280;18624;50.042;8.436;2024-03-06T13:07:37;100994.09;;;9.93;100.00